Time;durP1;ratioP1;P1;durP2;ratioP2;P2;SDS_P1;SDS_P2;PMS_P1;PMS_P2;Temp;Humidity;BMP_temperature;BMP_pressure;BME280_temperature;BME280_humidity;BME280_pressure;Samples;Min_cycle;Max_cycle;Signal;HPM_P1;HPM_P2
2021/03/30 00:02:16;;;;;;;19.25;7.57;;;14.50;74.00;;;;;;11954469;28;20042;-85
2021/03/30 00:08:04;;;;;;;22.05;7.47;;;14.50;74.70;;;;;;11957764;28;20053;-87
2021/03/30 00:13:50;;;;;;;20.55;8.00;;;14.40;74.80;;;;;;11962674;28;20045;-87
2021/03/30 00:19:37;;;;;;;14.38;6.90;;;14.40;75.00;;;;;;11962662;28;20041;-86
2021/03/30 00:25:25;;;;;;;22.15;7.90;;;14.20;75.20;;;;;;11934186;28;20484;-86
2021/03/30 00:31:11;;;;;;;19.73;8.60;;;14.20;75.50;;;;;;11964123;28;20064;-86
2021/03/30 00:36:57;;;;;;;22.00;8.65;;;14.10;75.60;;;;;;11962450;28;20519;-86
2021/03/30 00:42:45;;;;;;;19.88;7.95;;;14.00;76.00;;;;;;11953892;28;20067;-87
2021/03/30 00:48:33;;;;;;;27.05;9.45;;;14.10;75.90;;;;;;11965161;28;20459;-87
2021/03/30 00:54:19;;;;;;;24.88;8.65;;;14.00;75.70;;;;;;11966264;28;20053;-87
2021/03/30 01:00:16;;;;;;;19.52;7.57;;;14.00;76.10;;;;;;11952720;28;20531;-87
2021/03/30 01:06:03;;;;;;;19.58;7.18;;;13.90;76.80;;;;;;11961373;28;20574;-86
2021/03/30 01:12:14;;;;;;;23.42;7.63;;;13.80;76.50;;;;;;11987686;28;20049;-86
2021/03/30 01:18:12;;;;;;;22.23;8.10;;;13.80;76.90;;;;;;11979623;28;20049;-86
2021/03/30 01:24:19;;;;;;;20.75;9.00;;;13.70;76.80;;;;;;11964131;28;20496;-85
2021/03/30 01:30:10;;;;;;;22.15;9.55;;;13.70;76.90;;;;;;11964521;28;20065;-86
2021/03/30 01:35:57;;;;;;;24.00;9.13;;;13.60;77.10;;;;;;11959942;28;20092;-86
2021/03/30 01:41:47;;;;;;;31.23;10.10;;;13.50;77.10;;;;;;11976836;28;20041;-86
2021/03/30 01:47:37;;;;;;;26.10;10.65;;;13.50;77.30;;;;;;11964675;28;20447;-86
2021/03/30 01:53:26;;;;;;;26.02;9.23;;;13.50;77.00;;;;;;11969844;28;20056;-86
2021/03/30 01:59:15;;;;;;;26.00;9.88;;;13.40;77.20;;;;;;11960104;28;20056;-87
2021/03/30 02:05:03;;;;;;;23.65;11.82;;;13.30;77.60;;;;;;11963104;28;20060;-86
2021/03/30 02:10:51;;;;;;;29.92;10.65;;;13.30;77.50;;;;;;11964402;28;20068;-86
2021/03/30 02:16:42;;;;;;;26.88;10.02;;;13.30;77.30;;;;;;11961162;28;20057;-86
2021/03/30 02:22:35;;;;;;;25.52;10.07;;;13.30;77.80;;;;;;11958470;28;20034;-88
2021/03/30 02:28:25;;;;;;;24.52;10.52;;;13.20;78.50;;;;;;11958566;28;20115;-87
2021/03/30 02:34:14;;;;;;;29.17;11.18;;;13.20;77.60;;;;;;11957757;28;20096;-87
2021/03/30 02:40:03;;;;;;;26.27;10.15;;;13.20;77.60;;;;;;11965177;28;20050;-86
2021/03/30 02:45:52;;;;;;;37.75;10.70;;;13.20;78.30;;;;;;11971932;28;20053;-86
2021/03/30 02:51:40;;;;;;;34.70;12.32;;;13.10;77.80;;;;;;11962746;28;20045;-86
2021/03/30 02:57:28;;;;;;;32.10;11.88;;;13.00;78.10;;;;;;11967662;28;20508;-86
2021/03/30 03:03:17;;;;;;;28.70;11.10;;;12.90;77.90;;;;;;11966204;28;20049;-86
2021/03/30 03:09:04;;;;;;;32.92;10.75;;;12.90;78.20;;;;;;11969049;28;20069;-86
2021/03/30 03:14:52;;;;;;;27.88;12.27;;;12.90;78.30;;;;;;11978165;28;20142;-86
2021/03/30 03:20:46;;;;;;;33.17;12.73;;;12.90;78.60;;;;;;11990936;28;20140;-86
2021/03/30 03:26:32;;;;;;;;;;;12.70;78.10;;;;;;11971186;28;20057;-86
2021/03/30 03:32:25;;;;;;;33.92;14.43;;;12.60;78.20;;;;;;11970324;28;19999;-86
2021/03/30 03:38:13;;;;;;;35.40;13.40;;;12.60;78.00;;;;;;11964089;28;20050;-85
2021/03/30 03:43:59;;;;;;;30.95;11.48;;;12.60;78.00;;;;;;11976417;28;20111;-87
2021/03/30 03:49:46;;;;;;;32.08;11.15;;;12.70;78.60;;;;;;11968678;28;20055;-87
2021/03/30 03:55:33;;;;;;;28.15;10.15;;;12.70;78.80;;;;;;11970096;28;20049;-87
2021/03/30 04:01:26;;;;;;;34.03;11.82;;;12.60;79.10;;;;;;11978404;28;20504;-86
2021/03/30 04:07:17;;;;;;;32.38;12.43;;;12.60;79.40;;;;;;11968043;28;20049;-86
2021/03/30 04:13:05;;;;;;;34.97;11.50;;;12.50;78.60;;;;;;11963435;28;20045;-86
2021/03/30 04:18:54;;;;;;;31.40;12.95;;;12.50;78.90;;;;;;11962473;28;20041;-89
2021/03/30 04:24:44;;;;;;;36.30;13.55;;;12.40;79.40;;;;;;11966809;28;20508;-86
2021/03/30 04:30:30;;;;;;;37.08;13.27;;;12.40;79.70;;;;;;11965386;28;20062;-86
2021/03/30 04:36:18;;;;;;;40.83;14.05;;;12.30;78.50;;;;;;11960424;28;20041;-86
2021/03/30 04:42:06;;;;;;;34.95;12.98;;;12.30;78.40;;;;;;11958473;28;20152;-87
2021/03/30 04:47:53;;;;;;;40.92;14.88;;;12.30;78.10;;;;;;11968409;28;20045;-86
2021/03/30 04:53:39;;;;;;;36.75;14.38;;;12.30;78.60;;;;;;11967714;28;20045;-86
2021/03/30 04:59:27;;;;;;;42.95;14.48;;;12.20;78.50;;;;;;11970193;28;20302;-88
2021/03/30 05:05:14;;;;;;;36.70;14.95;;;12.10;78.80;;;;;;11955952;28;20570;-84
2021/03/30 05:11:00;;;;;;;43.42;14.95;;;12.10;79.20;;;;;;11952902;28;20495;-86
2021/03/30 05:16:48;;;;;;;33.30;14.23;;;12.10;78.80;;;;;;11971937;28;20111;-84
2021/03/30 05:22:34;;;;;;;40.50;15.68;;;12.10;78.90;;;;;;11983818;28;20045;-85
2021/03/30 05:28:21;;;;;;;42.40;13.82;;;12.10;78.70;;;;;;11981561;28;20150;-87
2021/03/30 05:34:08;;;;;;;39.08;13.45;;;12.10;79.10;;;;;;11970801;28;20401;-86
2021/03/30 05:39:55;;;;;;;89.47;26.45;;;12.00;79.60;;;;;;11960137;28;20041;-85
2021/03/30 05:45:43;;;;;;;45.83;13.20;;;11.90;80.00;;;;;;11963881;28;20049;-84
2021/03/30 05:51:38;;;;;;;63.58;16.15;;;11.90;79.80;;;;;;11963420;28;20531;-87
2021/03/30 05:57:26;;;;;;;104.47;19.10;;;11.90;80.10;;;;;;11957112;28;20054;-86
2021/03/30 06:03:14;;;;;;;61.88;16.05;;;11.80;79.90;;;;;;11951353;28;20056;-86
2021/03/30 06:09:04;;;;;;;46.17;14.98;;;11.80;79.60;;;;;;11971774;28;20075;-85
2021/03/30 06:14:51;;;;;;;56.75;15.68;;;11.90;80.00;;;;;;11979170;28;20332;-85
2021/03/30 06:20:37;;;;;;;60.75;16.60;;;11.90;80.40;;;;;;11972089;28;20041;-86
2021/03/30 06:26:25;;;;;;;46.80;14.15;;;12.00;80.70;;;;;;11966369;28;20111;-86
2021/03/30 06:32:14;;;;;;;50.55;14.88;;;12.00;80.80;;;;;;11957710;28;20053;-84
2021/03/30 06:38:00;;;;;;;34.88;14.05;;;12.10;81.00;;;;;;11956902;28;20052;-83
2021/03/30 06:49:54;;;;;;;46.70;14.18;;;12.30;81.50;;;;;;11952086;28;20046;-79
2021/03/30 06:55:48;;;;;;;37.38;13.50;;;12.40;81.90;;;;;;11947102;28;20049;-80
2021/03/30 07:01:36;;;;;;;51.60;14.70;;;12.50;82.30;;;;;;11953354;28;20049;-78
2021/03/30 07:07:24;;;;;;;42.92;15.05;;;12.60;81.40;;;;;;11952982;28;20045;-81
2021/03/30 07:13:12;;;;;;;48.65;16.75;;;12.80;81.50;;;;;;11954025;28;20041;-79
2021/03/30 07:19:00;;;;;;;54.05;16.80;;;13.00;82.00;;;;;;11951518;28;20042;-81
2021/03/30 07:24:54;;;;;;;49.67;16.08;;;13.10;81.40;;;;;;11938530;28;20058;-83
2021/03/30 07:30:44;;;;;;;45.17;17.67;;;13.30;80.90;;;;;;11952282;28;20078;-80
2021/03/30 07:36:39;;;;;;;50.35;18.40;;;13.50;81.10;;;;;;11962084;28;20057;-80
2021/03/30 07:42:27;;;;;;;48.35;17.17;;;13.70;81.30;;;;;;11955921;28;20100;-80
2021/03/30 07:48:18;;;;;;;46.65;17.92;;;13.90;81.60;;;;;;11953114;28;20049;-80
2021/03/30 07:54:13;;;;;;;49.00;17.88;;;14.10;82.00;;;;;;11954641;28;20049;-79
2021/03/30 07:59:59;;;;;;;50.65;18.60;;;14.30;79.20;;;;;;11951767;28;20392;-78
2021/03/30 08:06:04;;;;;;;48.13;17.48;;;14.50;77.50;;;;;;11955317;28;20504;-80
2021/03/30 08:11:55;;;;;;;43.08;17.15;;;14.70;77.10;;;;;;11958498;28;20056;-80
2021/03/30 08:17:44;;;;;;;41.92;17.85;;;14.80;75.70;;;;;;11954010;28;20573;-78
2021/03/30 08:23:51;;;;;;;48.10;17.45;;;14.90;75.20;;;;;;11945993;28;20168;-80
2021/03/30 08:29:38;;;;;;;50.75;16.95;;;14.90;74.50;;;;;;11951662;28;20531;-78
2021/03/30 08:35:37;;;;;;;49.08;17.75;;;15.00;74.40;;;;;;11953004;28;20049;-78
2021/03/30 08:41:50;;;;;;;45.47;16.95;;;15.10;74.10;;;;;;11955423;28;20472;-80
2021/03/30 08:47:39;;;;;;;40.50;16.40;;;15.30;73.90;;;;;;11959606;28;20053;-80
2021/03/30 08:53:29;;;;;;;36.65;15.98;;;15.50;73.60;;;;;;11949039;28;20112;-79
2021/03/30 08:59:19;;;;;;;36.22;13.63;;;15.60;73.20;;;;;;11948972;28;20045;-79
2021/03/30 09:05:15;;;;;;;46.30;14.85;;;15.70;73.10;;;;;;11952625;28;20049;-79
2021/03/30 09:11:15;;;;;;;32.55;13.05;;;15.80;72.90;;;;;;11946227;28;20420;-79
2021/03/30 09:17:07;;;;;;;40.83;13.75;;;15.90;72.70;;;;;;11952411;28;20565;-79
2021/03/30 09:22:57;;;;;;;34.83;14.55;;;16.00;72.40;;;;;;11951571;28;20515;-77
2021/03/30 09:28:44;;;;;;;34.72;14.25;;;16.00;72.80;;;;;;11948409;28;20532;-79
2021/03/30 09:34:30;;;;;;;29.90;12.32;;;16.20;73.00;;;;;;11952092;28;20053;-80
2021/03/30 09:40:20;;;;;;;35.78;12.60;;;16.20;72.50;;;;;;11953968;28;20049;-80
2021/03/30 09:46:07;;;;;;;32.03;12.85;;;16.30;72.60;;;;;;11961645;28;21921;-81
2021/03/30 09:51:54;;;;;;;35.13;11.90;;;16.30;71.40;;;;;;11964224;28;20050;-80
2021/03/30 09:57:42;;;;;;;31.38;10.70;;;16.30;70.60;;;;;;11964587;28;20056;-79
2021/03/30 10:03:29;;;;;;;25.23;11.82;;;16.30;72.10;;;;;;11962735;28;20041;-77
2021/03/30 10:09:15;;;;;;;27.08;10.35;;;16.60;71.70;;;;;;11957718;28;20045;-77
2021/03/30 10:15:04;;;;;;;31.15;10.90;;;16.70;71.20;;;;;;11951896;28;20053;-81
2021/03/30 10:20:52;;;;;;;30.20;10.98;;;16.70;70.70;;;;;;11967149;28;20045;-82
2021/03/30 10:26:39;;;;;;;32.85;10.35;;;16.80;70.40;;;;;;11962916;28;20115;-83
2021/03/30 10:32:31;;;;;;;27.50;10.20;;;17.00;70.40;;;;;;11980322;28;20136;-83
2021/03/30 10:44:19;;;;;;;32.65;10.40;;;17.30;69.70;;;;;;11983504;28;20038;-82
2021/03/30 10:50:09;;;;;;;24.02;7.97;;;17.50;70.20;;;;;;11963759;28;20064;-82
2021/03/30 10:55:56;;;;;;;15.82;6.18;;;17.60;69.20;;;;;;11962150;28;20424;-82
2021/03/30 11:01:42;;;;;;;21.58;6.93;;;17.60;68.30;;;;;;11961216;28;20049;-83
2021/03/30 11:07:29;;;;;;;30.45;15.13;;;17.80;67.90;;;;;;11953590;28;20053;-79
2021/03/30 11:13:16;;;;;;;19.67;8.00;;;18.00;68.60;;;;;;11951955;28;20107;-82
2021/03/30 11:19:03;;;;;;;18.40;7.28;;;18.20;68.00;;;;;;11951792;28;20057;-79
2021/03/30 11:24:56;;;;;;;14.68;6.88;;;18.30;67.00;;;;;;11958202;28;20107;-79
2021/03/30 11:30:46;;;;;;;;;;;18.40;67.80;;;;;;11957344;28;20053;-79
2021/03/30 11:36:38;;;;;;;21.08;7.47;;;18.70;66.00;;;;;;11959229;28;19975;-80
2021/03/30 11:42:27;;;;;;;20.42;7.68;;;18.80;65.70;;;;;;11956048;28;20037;-81
2021/03/30 11:48:13;;;;;;;19.30;7.65;;;18.80;64.60;;;;;;11938039;28;20049;-82
2021/03/30 11:54:00;;;;;;;20.05;7.30;;;19.00;64.50;;;;;;11955522;28;20893;-82
2021/03/30 11:59:47;;;;;;;17.27;7.60;;;19.20;64.40;;;;;;11956036;28;20049;-81
2021/03/30 12:05:34;;;;;;;19.65;7.50;;;19.30;63.60;;;;;;11956407;28;20056;-80
2021/03/30 12:11:20;;;;;;;20.02;7.65;;;19.50;62.70;;;;;;11953563;28;20050;-82
2021/03/30 12:17:07;;;;;;;17.52;8.27;;;19.70;63.40;;;;;;11949155;28;20053;-79
2021/03/30 12:22:55;;;;;;;17.92;8.02;;;19.80;62.00;;;;;;11955605;28;20127;-77
2021/03/30 12:28:41;;;;;;;26.92;14.13;;;20.00;61.80;;;;;;11943608;28;20076;-77
2021/03/30 12:34:28;;;;;;;18.17;7.85;;;20.20;61.90;;;;;;11954327;28;20052;-79
2021/03/30 12:40:15;;;;;;;18.67;7.25;;;20.40;61.70;;;;;;11949178;28;20052;-79
2021/03/30 12:46:01;;;;;;;20.58;6.43;;;20.60;60.40;;;;;;11951837;28;20049;-78
2021/03/30 12:51:49;;;;;;;21.30;6.95;;;20.80;59.10;;;;;;11947394;28;20053;-78
2021/03/30 12:57:35;;;;;;;18.23;6.45;;;20.90;58.40;;;;;;11945429;28;20056;-78
2021/03/30 13:03:22;;;;;;;13.50;6.13;;;21.10;57.40;;;;;;11945952;28;20050;-78
2021/03/30 13:09:09;;;;;;;10.10;5.70;;;21.40;56.80;;;;;;11940067;28;20053;-77
2021/03/30 13:14:55;;;;;;;11.43;5.05;;;21.60;56.60;;;;;;11936200;28;20129;-78
2021/03/30 13:20:42;;;;;;;15.52;5.60;;;21.80;55.90;;;;;;11946966;28;20068;-78
2021/03/30 13:26:29;;;;;;;21.00;4.97;;;21.90;55.50;;;;;;11944915;28;20050;-78
2021/03/30 13:32:17;;;;;;;13.15;5.15;;;22.00;54.50;;;;;;11940699;28;20045;-78
2021/03/30 13:38:03;;;;;;;10.45;4.72;;;22.10;55.20;;;;;;11940474;28;20053;-79
2021/03/30 13:43:53;;;;;;;10.48;4.47;;;22.30;54.80;;;;;;11941216;28;20053;-79
2021/03/30 13:49:40;;;;;;;16.20;5.50;;;22.40;54.00;;;;;;11943689;28;20049;-78
2021/03/30 13:55:26;;;;;;;12.98;5.03;;;22.60;54.40;;;;;;11947388;28;20060;-78
2021/03/30 14:01:13;;;;;;;17.13;5.63;;;22.80;54.60;;;;;;11940995;28;20045;-78
2021/03/30 14:07:00;;;;;;;11.88;5.50;;;22.90;53.90;;;;;;11944548;28;20492;-78
2021/03/30 14:13:03;;;;;;;12.32;4.90;;;23.00;54.20;;;;;;11942367;28;20057;-78
2021/03/30 14:18:58;;;;;;;13.43;5.80;;;23.10;54.50;;;;;;11943908;28;20049;-79
2021/03/30 14:25:10;;;;;;;12.38;4.75;;;23.20;53.30;;;;;;11941827;28;20132;-78
2021/03/30 14:30:57;;;;;;;8.90;4.43;;;23.40;53.10;;;;;;11947144;28;20046;-78
2021/03/30 14:36:44;;;;;;;10.07;4.78;;;23.50;52.20;;;;;;11954338;28;20507;-78
2021/03/30 14:42:31;;;;;;;8.52;4.60;;;23.60;52.80;;;;;;11952119;28;20757;-78
2021/03/30 14:54:24;;;;;;;10.27;4.30;;;23.70;52.70;;;;;;11954175;28;20037;-80
2021/03/30 15:00:16;;;;;;;7.15;4.07;;;23.70;52.60;;;;;;11958545;28;20724;-80
2021/03/30 15:06:03;;;;;;;12.27;3.80;;;23.80;51.10;;;;;;11954820;28;20053;-80
2021/03/30 15:11:50;;;;;;;12.93;3.88;;;23.90;51.20;;;;;;11954204;28;20385;-80
2021/03/30 15:17:37;;;;;;;10.40;3.65;;;24.00;50.70;;;;;;11949192;28;20049;-79
2021/03/30 15:23:23;;;;;;;8.25;3.20;;;24.00;49.80;;;;;;11956744;28;20156;-79
2021/03/30 15:29:10;;;;;;;5.05;3.00;;;23.90;47.00;;;;;;11952468;28;20085;-78
2021/03/30 15:34:57;;;;;;;9.90;3.38;;;23.90;47.70;;;;;;11951393;28;20075;-79
2021/03/30 15:40:44;;;;;;;10.32;3.58;;;24.00;48.20;;;;;;11949342;28;20053;-79
2021/03/30 15:47:18;;;;;;;7.78;3.30;;;23.90;47.90;;;;;;11955578;28;20463;-79
2021/03/30 15:52:43;;;;;;;10.70;3.17;;;23.90;49.00;;;;;;11948061;28;20049;-79
2021/03/30 15:58:29;;;;;;;7.22;3.05;;;24.00;48.90;;;;;;11953175;28;20054;-78
2021/03/30 16:04:16;;;;;;;10.27;3.20;;;24.00;49.40;;;;;;11951311;28;20061;-81
2021/03/30 16:10:04;;;;;;;10.75;3.45;;;24.10;49.80;;;;;;11953273;28;20057;-79
2021/03/30 16:15:51;;;;;;;5.53;3.13;;;24.10;49.00;;;;;;11951809;28;20077;-79
2021/03/30 16:21:38;;;;;;;6.82;3.20;;;24.20;48.80;;;;;;11953120;28;20053;-79
2021/03/30 16:27:24;;;;;;;9.55;3.53;;;24.30;48.10;;;;;;11954940;28;20508;-78
2021/03/30 16:33:13;;;;;;;4.72;3.38;;;24.40;48.50;;;;;;11953218;28;20045;-79
2021/03/30 16:39:00;;;;;;;8.48;3.42;;;24.50;48.80;;;;;;11948082;28;20052;-79
2021/03/30 16:44:46;;;;;;;7.10;2.72;;;25.00;48.30;;;;;;11951561;28;20041;-79
2021/03/30 16:50:33;;;;;;;8.13;3.00;;;26.60;45.00;;;;;;11950010;28;20053;-78
2021/03/30 16:56:21;;;;;;;6.60;2.90;;;29.30;40.80;;;;;;11950278;28;20045;-79
2021/03/30 17:02:07;;;;;;;6.97;4.35;;;31.80;38.20;;;;;;11940996;28;20053;-79
2021/03/30 17:07:54;;;;;;;12.40;6.95;;;33.10;34.80;;;;;;11949134;28;20049;-80
2021/03/30 17:13:42;;;;;;;5.70;4.03;;;33.40;34.40;;;;;;11899377;28;20049;-79
2021/03/30 17:19:29;;;;;;;10.25;3.42;;;33.80;34.10;;;;;;11931608;28;20068;-79
2021/03/30 17:25:17;;;;;;;7.80;3.60;;;33.50;35.80;;;;;;11928748;28;20080;-79
2021/03/30 17:31:05;;;;;;;11.02;4.47;;;32.00;37.50;;;;;;11932999;28;20096;-78
2021/03/30 17:36:55;;;;;;;9.50;3.60;;;29.40;41.40;;;;;;11939154;28;20099;-79
2021/03/30 17:42:42;;;;;;;6.97;3.88;;;27.30;45.30;;;;;;11938516;28;20392;-78
2021/03/30 17:48:31;;;;;;;10.93;3.35;;;25.50;48.20;;;;;;11939378;28;20053;-80
2021/03/30 17:54:17;;;;;;;16.73;7.82;;;24.30;50.70;;;;;;11933142;28;20049;-79
2021/03/30 18:00:06;;;;;;;12.20;3.92;;;23.40;52.00;;;;;;11939084;28;20501;-78
2021/03/30 18:05:54;;;;;;;10.27;3.72;;;22.70;53.70;;;;;;11948416;28;20104;-78
2021/03/30 18:11:42;;;;;;;12.05;4.93;;;22.20;54.80;;;;;;11952739;28;20582;-79
2021/03/30 18:17:28;;;;;;;10.77;4.70;;;21.80;55.00;;;;;;11959130;28;20061;-78
2021/03/30 18:23:16;;;;;;;10.88;3.80;;;21.60;56.30;;;;;;11945547;28;20041;-79
2021/03/30 18:29:03;;;;;;;7.82;3.92;;;21.20;57.10;;;;;;11950432;28;20055;-78
2021/03/30 18:34:49;;;;;;;7.68;3.60;;;20.90;58.60;;;;;;11954001;28;20420;-79
2021/03/30 18:40:37;;;;;;;12.80;4.05;;;20.70;58.70;;;;;;11947057;28;20497;-79
2021/03/30 18:46:23;;;;;;;6.60;3.72;;;20.40;59.30;;;;;;11943866;28;20132;-79
2021/03/30 18:52:10;;;;;;;9.93;3.22;;;20.20;59.70;;;;;;11946119;28;20053;-80
2021/03/30 18:57:59;;;;;;;13.75;4.50;;;20.10;60.00;;;;;;11945207;28;20141;-79
2021/03/30 19:03:45;;;;;;;13.05;4.45;;;20.00;60.50;;;;;;11956597;28;20084;-81
2021/03/30 19:09:32;;;;;;;12.38;4.10;;;19.90;60.70;;;;;;11955816;28;20049;-81
2021/03/30 19:15:22;;;;;;;12.55;4.50;;;19.80;61.50;;;;;;11957279;28;20051;-88
2021/03/30 19:21:09;;;;;;;10.25;3.78;;;19.60;62.70;;;;;;11948422;28;20049;-79
2021/03/30 19:26:55;;;;;;;13.65;4.28;;;19.50;62.70;;;;;;11956885;28;20049;-80
2021/03/30 19:32:48;;;;;;;11.50;4.72;;;19.40;62.40;;;;;;11947214;28;20091;-81
2021/03/30 19:38:35;;;;;;;11.18;4.88;;;19.40;63.30;;;;;;11955704;28;20508;-80
2021/03/30 19:44:21;;;;;;;15.38;5.18;;;19.30;63.90;;;;;;11945424;28;20049;-81
2021/03/30 19:50:11;;;;;;;11.77;4.47;;;19.20;64.50;;;;;;11952830;28;20078;-81
2021/03/30 19:55:58;;;;;;;11.00;4.55;;;19.10;64.50;;;;;;11953585;28;20065;-79
2021/03/30 20:01:45;;;;;;;15.25;5.55;;;19.00;65.00;;;;;;11949035;28;20054;-79
2021/03/30 20:07:32;;;;;;;10.15;5.68;;;18.90;65.90;;;;;;11946200;28;20072;-79
2021/03/30 20:13:18;;;;;;;13.80;5.38;;;18.90;66.60;;;;;;11946995;28;20201;-81
2021/03/30 20:19:05;;;;;;;15.93;5.25;;;18.80;66.70;;;;;;11947510;28;20049;-79
2021/03/30 20:24:52;;;;;;;11.65;4.78;;;18.60;66.80;;;;;;11943189;28;20048;-83
2021/03/30 20:30:39;;;;;;;12.70;5.40;;;18.60;67.00;;;;;;11942791;28;20543;-80
2021/03/30 20:36:25;;;;;;;14.48;5.65;;;18.50;67.60;;;;;;11943936;28;20058;-80
2021/03/30 20:42:12;;;;;;;9.70;5.30;;;18.40;67.80;;;;;;11947066;28;20137;-80
2021/03/30 20:47:59;;;;;;;17.20;4.80;;;18.30;68.80;;;;;;11937042;28;20065;-80
2021/03/30 20:53:45;;;;;;;11.90;5.43;;;18.20;68.40;;;;;;11945125;28;20152;-81
2021/03/30 20:59:33;;;;;;;21.80;5.35;;;18.00;69.30;;;;;;11938534;28;20625;-80
2021/03/30 21:05:19;;;;;;;20.85;5.40;;;17.90;69.70;;;;;;11943555;28;20056;-85
2021/03/30 21:11:05;;;;;;;71.07;16.52;;;17.90;69.70;;;;;;11948726;28;20045;-84
2021/03/30 21:16:53;;;;;;;44.30;12.63;;;17.80;70.50;;;;;;11952631;28;20060;-85
2021/03/30 21:22:39;;;;;;;33.75;10.30;;;17.80;71.70;;;;;;11942873;28;20069;-84
2021/03/30 21:28:26;;;;;;;16.00;5.88;;;17.80;71.40;;;;;;11949148;28;21000;-84
2021/03/30 21:34:13;;;;;;;11.10;5.68;;;17.70;70.90;;;;;;11955633;28;20184;-84
2021/03/30 21:40:00;;;;;;;15.27;6.90;;;17.60;70.70;;;;;;11954249;28;20049;-84
2021/03/30 21:45:46;;;;;;;30.42;9.38;;;17.50;70.90;;;;;;11956431;28;20393;-84
2021/03/30 21:51:33;;;;;;;65.57;16.27;;;17.40;71.60;;;;;;11953585;28;20045;-84
2021/03/30 21:57:20;;;;;;;36.17;11.18;;;17.40;72.90;;;;;;11954914;28;20045;-84
2021/03/30 22:03:06;;;;;;;19.27;7.03;;;17.40;72.60;;;;;;11953613;28;20054;-84
2021/03/30 22:08:53;;;;;;;20.35;7.35;;;17.30;72.00;;;;;;11951794;28;20807;-84
2021/03/30 22:14:42;;;;;;;19.13;6.93;;;17.30;71.70;;;;;;11965461;28;20037;-84
2021/03/30 22:20:30;;;;;;;14.63;6.53;;;17.20;72.10;;;;;;11957610;28;20052;-85
2021/03/30 22:26:20;;;;;;;28.17;7.43;;;17.10;71.90;;;;;;11957071;28;20500;-85
2021/03/30 22:32:07;;;;;;;14.82;6.90;;;17.00;72.40;;;;;;11954387;28;20475;-84
2021/03/30 22:37:53;;;;;;;14.32;6.90;;;17.00;72.40;;;;;;11956418;28;20056;-84
2021/03/30 22:43:41;;;;;;;19.95;6.38;;;16.90;72.80;;;;;;11957243;28;20041;-84
2021/03/30 22:49:27;;;;;;;14.38;6.63;;;16.80;72.50;;;;;;11955824;28;20108;-82
2021/03/30 22:55:14;;;;;;;17.55;6.38;;;16.80;73.50;;;;;;11949905;28;20045;-84
2021/03/30 23:01:02;;;;;;;19.83;7.18;;;16.80;72.60;;;;;;11956177;28;20416;-84
2021/03/30 23:06:48;;;;;;;14.73;6.55;;;16.60;73.20;;;;;;11953295;28;20436;-84
2021/03/30 23:12:34;;;;;;;18.50;7.93;;;16.60;73.30;;;;;;11953325;28;20441;-84
2021/03/30 23:18:22;;;;;;;10.82;6.43;;;16.50;74.00;;;;;;11946136;28;20393;-84
2021/03/30 23:24:09;;;;;;;13.27;6.68;;;16.50;73.70;;;;;;11947794;28;20045;-85
2021/03/30 23:29:56;;;;;;;12.43;5.72;;;16.40;74.10;;;;;;11952555;28;20049;-84
2021/03/30 23:35:44;;;;;;;15.43;6.28;;;16.30;73.60;;;;;;11949031;28;20558;-85
2021/03/30 23:41:30;;;;;;;26.45;7.47;;;16.30;73.90;;;;;;11956122;28;20423;-84
2021/03/30 23:47:17;;;;;;;17.17;7.07;;;16.30;75.00;;;;;;11943033;28;20566;-83
2021/03/30 23:53:04;;;;;;;15.00;6.78;;;16.30;74.80;;;;;;11950287;28;20053;-84
2021/03/30 23:58:51;;;;;;;13.75;6.35;;;16.20;74.50;;;;;;11947945;28;20499;-83
